createdAt,value
2023-03-23T00:00:01.977Z,984.98
2023-03-23T00:01:01.973Z,984.94
2023-03-23T00:02:01.995Z,984.92
2023-03-23T00:03:01.955Z,984.96
2023-03-23T00:04:01.980Z,984.99
2023-03-23T00:05:01.936Z,984.99
2023-03-23T00:06:01.926Z,985.02
2023-03-23T00:07:01.902Z,984.95
2023-03-23T00:08:01.959Z,984.91
2023-03-23T00:09:01.890Z,984.94
2023-03-23T00:10:01.876Z,984.93
2023-03-23T00:11:01.870Z,984.91
2023-03-23T00:12:01.862Z,984.90
2023-03-23T00:13:01.875Z,984.91
2023-03-23T00:14:01.837Z,984.90
2023-03-23T00:15:01.821Z,984.90
2023-03-23T00:16:04.184Z,984.87
2023-03-23T00:17:01.805Z,984.89
2023-03-23T00:18:01.816Z,984.94
2023-03-23T00:19:01.817Z,984.93
2023-03-23T00:20:01.767Z,984.88
2023-03-23T00:21:01.771Z,984.90
2023-03-23T00:22:01.746Z,984.92
2023-03-23T00:23:01.758Z,984.95
2023-03-23T00:24:01.748Z,984.91
2023-03-23T00:25:01.808Z,984.95
2023-03-23T00:26:01.705Z,984.98
2023-03-23T00:27:01.703Z,984.92
2023-03-23T00:28:01.723Z,984.92
2023-03-23T00:29:01.695Z,984.93
2023-03-23T00:30:01.670Z,984.96
2023-03-23T00:31:01.655Z,984.96
2023-03-23T00:32:01.647Z,984.92
2023-03-23T00:33:01.654Z,984.89
2023-03-23T00:34:01.639Z,984.91
2023-03-23T00:35:01.645Z,984.90
2023-03-23T00:36:01.657Z,984.95
2023-03-23T00:37:01.619Z,984.95
2023-03-23T00:38:01.657Z,984.94
2023-03-23T00:39:01.574Z,984.95
2023-03-23T00:40:01.570Z,984.94
2023-03-23T00:41:01.553Z,984.90
2023-03-23T00:42:01.540Z,984.93
2023-03-23T00:43:01.551Z,984.93
2023-03-23T00:44:01.519Z,984.93
2023-03-23T00:45:01.528Z,984.94
2023-03-23T00:46:01.558Z,984.92
2023-03-23T00:47:01.540Z,984.93
2023-03-23T00:48:01.519Z,984.92
2023-03-23T00:49:01.506Z,984.88
2023-03-23T00:50:01.462Z,984.90
2023-03-23T00:51:01.454Z,984.91
2023-03-23T00:52:01.456Z,984.90
2023-03-23T00:53:01.453Z,984.93
2023-03-23T00:54:01.418Z,984.91
2023-03-23T00:55:01.418Z,984.91
2023-03-23T00:56:01.399Z,984.95
2023-03-23T00:57:01.430Z,984.93
2023-03-23T00:58:01.443Z,984.96
2023-03-23T00:59:01.371Z,984.95
2023-03-23T01:00:05.574Z,984.95
2023-03-23T01:01:01.365Z,984.94
2023-03-23T01:02:01.345Z,984.90
2023-03-23T01:03:01.344Z,984.87
2023-03-23T01:04:01.302Z,984.92
2023-03-23T01:05:01.301Z,984.89
2023-03-23T01:06:01.283Z,984.87
2023-03-23T01:07:01.313Z,984.83
2023-03-23T01:08:01.301Z,984.81
2023-03-23T01:09:01.263Z,984.81
2023-03-23T01:10:01.239Z,984.81
2023-03-23T01:11:01.238Z,984.79
2023-03-23T01:12:01.217Z,984.76
2023-03-23T01:13:01.232Z,984.77
2023-03-23T01:14:01.201Z,984.79
2023-03-23T01:15:01.191Z,984.76
2023-03-23T01:16:01.176Z,984.76
2023-03-23T01:17:01.180Z,984.74
2023-03-23T01:18:01.176Z,984.72
2023-03-23T01:19:01.154Z,984.70
2023-03-23T01:20:01.150Z,984.65
2023-03-23T01:21:01.140Z,984.69
2023-03-23T01:22:01.113Z,984.67
2023-03-23T01:23:01.131Z,984.65
2023-03-23T01:24:01.116Z,984.69
2023-03-23T01:25:01.096Z,984.64
2023-03-23T01:26:01.096Z,984.70
2023-03-23T01:27:01.111Z,984.67
2023-03-23T01:28:01.092Z,984.69
2023-03-23T01:29:01.052Z,984.75
2023-03-23T01:30:01.038Z,984.65
2023-03-23T01:31:01.040Z,984.65
2023-03-23T01:32:01.038Z,984.62
2023-03-23T01:33:01.021Z,984.61
2023-03-23T01:34:01.002Z,984.66
2023-03-23T01:35:00.976Z,984.68
2023-03-23T01:36:01.011Z,984.64
2023-03-23T01:37:00.959Z,984.66
2023-03-23T01:38:01.007Z,984.67
2023-03-23T01:39:00.945Z,984.68
2023-03-23T01:40:00.944Z,984.68
2023-03-23T01:41:00.918Z,984.65
2023-03-23T01:42:00.919Z,984.66
2023-03-23T01:43:00.935Z,984.66
2023-03-23T01:44:00.904Z,984.60
2023-03-23T01:45:00.884Z,984.60
2023-03-23T01:46:00.879Z,984.59
2023-03-23T01:47:00.867Z,984.58
2023-03-23T01:48:00.888Z,984.55
2023-03-23T01:49:00.849Z,984.58
2023-03-23T01:50:00.844Z,984.52
2023-03-23T01:51:00.835Z,984.50
2023-03-23T01:52:00.824Z,984.48
2023-03-23T01:53:00.861Z,984.52
2023-03-23T01:54:00.799Z,984.53
2023-03-23T01:55:00.788Z,984.47
2023-03-23T01:56:00.776Z,984.50
2023-03-23T01:57:00.754Z,984.53
2023-03-23T01:58:00.766Z,984.56
2023-03-23T01:59:00.732Z,984.50
2023-03-23T02:00:00.759Z,984.49
2023-03-23T02:01:00.715Z,984.43
2023-03-23T02:02:00.761Z,984.41
2023-03-23T02:03:00.735Z,984.41
2023-03-23T02:04:00.688Z,984.42
2023-03-23T02:05:00.674Z,984.42
2023-03-23T02:06:00.681Z,984.42
2023-03-23T02:07:00.664Z,984.42
2023-03-23T02:08:00.688Z,984.42
2023-03-23T02:09:00.639Z,984.38
2023-03-23T02:10:00.634Z,984.35
2023-03-23T02:11:00.632Z,984.36
2023-03-23T02:12:00.608Z,984.34
2023-03-23T02:13:00.720Z,984.32
2023-03-23T02:14:00.595Z,984.29
2023-03-23T02:15:00.593Z,984.29
2023-03-23T02:16:00.565Z,984.35
2023-03-23T02:17:00.542Z,984.31
2023-03-23T02:18:00.564Z,984.34
2023-03-23T02:19:00.567Z,984.40
2023-03-23T02:20:00.536Z,984.36
2023-03-23T02:21:00.521Z,984.34
2023-03-23T02:22:00.505Z,984.36
2023-03-23T02:23:00.526Z,984.36
2023-03-23T02:24:00.483Z,984.34
2023-03-23T02:25:00.468Z,984.35
2023-03-23T02:26:00.470Z,984.36
2023-03-23T02:27:00.441Z,984.36
2023-03-23T02:28:00.479Z,984.31
2023-03-23T02:29:00.434Z,984.28
2023-03-23T02:30:00.426Z,984.26
2023-03-23T02:31:00.439Z,984.34
2023-03-23T02:32:00.432Z,984.36
2023-03-23T02:33:00.934Z,984.36
2023-03-23T02:34:00.374Z,984.37
2023-03-23T02:35:00.375Z,984.39
2023-03-23T02:36:00.379Z,984.40
2023-03-23T02:37:00.332Z,984.35
2023-03-23T02:38:00.358Z,984.38
2023-03-23T02:39:00.339Z,984.42
2023-03-23T02:40:00.317Z,984.36
2023-03-23T02:41:00.303Z,984.36
2023-03-23T02:42:00.306Z,984.31
2023-03-23T02:43:00.302Z,984.32
2023-03-23T02:44:00.267Z,984.32
2023-03-23T02:45:00.273Z,984.32
2023-03-23T02:46:00.256Z,984.31
2023-03-23T02:47:00.245Z,984.31
2023-03-23T02:48:00.244Z,984.33
2023-03-23T02:49:00.211Z,984.34
2023-03-23T02:50:00.213Z,984.36
2023-03-23T02:51:00.189Z,984.33
2023-03-23T02:52:00.185Z,984.37
2023-03-23T02:53:00.235Z,984.36
2023-03-23T02:54:00.176Z,984.30
2023-03-23T02:55:00.183Z,984.29
2023-03-23T02:56:00.174Z,984.23
2023-03-23T02:57:00.123Z,984.25
2023-03-23T02:58:00.157Z,984.25
2023-03-23T02:59:00.136Z,984.24
2023-03-23T03:00:00.167Z,984.22
2023-03-23T03:01:00.122Z,984.21
2023-03-23T03:02:00.120Z,984.21
2023-03-23T03:03:00.120Z,984.23
2023-03-23T03:04:00.072Z,984.18
2023-03-23T03:05:00.081Z,984.21
2023-03-23T03:06:00.042Z,984.20
2023-03-23T03:07:00.101Z,984.20
2023-03-23T03:08:00.038Z,984.18
2023-03-23T03:09:00.009Z,984.20
2023-03-23T03:10:00.036Z,984.17
2023-03-23T03:10:59.973Z,984.11
2023-03-23T03:11:59.994Z,984.12
2023-03-23T03:13:00.011Z,984.07
2023-03-23T03:13:59.983Z,984.06
2023-03-23T03:14:59.936Z,984.07
2023-03-23T03:15:59.939Z,984.12
2023-03-23T03:16:59.928Z,984.13
2023-03-23T03:17:59.957Z,984.21
2023-03-23T03:19:00.015Z,984.22
2023-03-23T03:19:59.892Z,984.25
2023-03-23T03:20:59.900Z,984.21
2023-03-23T03:21:59.878Z,984.18
2023-03-23T03:22:59.882Z,984.17
2023-03-23T03:23:59.901Z,984.22
2023-03-23T03:24:59.831Z,984.25
2023-03-23T03:25:59.845Z,984.31
2023-03-23T03:26:59.821Z,984.39
2023-03-23T03:27:59.889Z,984.38
2023-03-23T03:28:59.846Z,984.42
2023-03-23T03:29:59.788Z,984.41
2023-03-23T03:30:59.814Z,984.43
2023-03-23T03:31:59.778Z,984.38
2023-03-23T03:32:59.757Z,984.40
2023-03-23T03:33:59.823Z,984.40
2023-03-23T03:34:59.732Z,984.42
2023-03-23T03:35:59.814Z,984.45
2023-03-23T03:36:59.726Z,984.43
2023-03-23T03:37:59.718Z,984.43
2023-03-23T03:38:59.731Z,984.44
2023-03-23T03:39:59.701Z,984.43
2023-03-23T03:40:59.678Z,984.46
2023-03-23T03:41:59.675Z,984.46
2023-03-23T03:42:59.671Z,984.45
2023-03-23T03:43:59.672Z,984.41
2023-03-23T03:44:59.645Z,984.44
2023-03-23T03:45:59.637Z,984.45
2023-03-23T03:46:59.614Z,984.47
2023-03-23T03:47:59.660Z,984.48
2023-03-23T03:48:59.611Z,984.49
2023-03-23T03:49:59.582Z,984.51
2023-03-23T03:50:59.602Z,984.54
2023-03-23T03:51:59.561Z,984.53
2023-03-23T03:52:59.552Z,984.55
2023-03-23T03:53:59.577Z,984.55
2023-03-23T03:54:59.534Z,984.55
2023-03-23T03:55:59.516Z,984.53
2023-03-23T03:56:59.570Z,984.56
2023-03-23T03:57:59.546Z,984.55
2023-03-23T03:58:59.560Z,984.56
2023-03-23T03:59:59.544Z,984.55
2023-03-23T04:00:59.483Z,984.55
2023-03-23T04:01:59.498Z,984.56
2023-03-23T04:02:59.504Z,984.55
2023-03-23T04:03:59.511Z,984.57
2023-03-23T04:04:59.423Z,984.56
2023-03-23T04:05:59.418Z,984.61
2023-03-23T04:06:59.430Z,984.57
2023-03-23T04:08:09.405Z,984.58
2023-03-23T04:09:07.837Z,984.59
2023-03-23T04:09:59.386Z,984.59
2023-03-23T04:10:59.395Z,984.61
2023-03-23T04:11:59.367Z,984.62
2023-03-23T04:12:59.356Z,984.63
2023-03-23T04:13:59.378Z,984.67
2023-03-23T04:14:59.316Z,984.65
2023-03-23T04:16:07.130Z,984.67
2023-03-23T04:16:59.307Z,984.67
2023-03-23T04:17:59.303Z,984.68
2023-03-23T04:18:59.315Z,984.66
2023-03-23T04:19:59.277Z,984.69
2023-03-23T04:20:59.250Z,984.70
2023-03-23T04:21:59.261Z,984.73
2023-03-23T04:22:59.249Z,984.74
2023-03-23T04:23:59.243Z,984.70
2023-03-23T04:24:59.207Z,984.71
2023-03-23T04:25:59.269Z,984.70
2023-03-23T04:26:59.195Z,984.69
2023-03-23T04:28:01.080Z,984.72
2023-03-23T04:28:59.205Z,984.74
2023-03-23T04:29:59.167Z,984.71
2023-03-23T04:30:59.152Z,984.74
2023-03-23T04:31:59.162Z,984.75
2023-03-23T04:32:59.140Z,984.74
2023-03-23T04:34:00.650Z,984.76
2023-03-23T04:34:59.138Z,984.75
2023-03-23T04:35:59.150Z,984.76
2023-03-23T04:36:59.142Z,984.75
2023-03-23T04:37:59.080Z,984.71
2023-03-23T04:38:59.097Z,984.69
2023-03-23T04:39:59.126Z,984.65
2023-03-23T04:40:59.175Z,984.63
2023-03-23T04:41:59.055Z,984.58
2023-03-23T04:42:59.038Z,984.52
2023-03-23T04:43:59.052Z,984.57
2023-03-23T04:44:59.044Z,984.59
2023-03-23T04:45:59.007Z,984.57
2023-03-23T04:46:59.000Z,984.54
2023-03-23T04:47:58.982Z,984.51
2023-03-23T04:48:58.985Z,984.49
2023-03-23T04:49:58.963Z,984.54
2023-03-23T04:50:58.957Z,984.56
2023-03-23T04:51:58.936Z,984.54
2023-03-23T04:52:58.933Z,984.51
2023-03-23T04:53:59.052Z,984.47
2023-03-23T04:54:58.880Z,984.46
2023-03-23T04:55:58.916Z,984.46
2023-03-23T04:56:58.898Z,984.46
2023-03-23T04:57:58.861Z,984.42
2023-03-23T04:58:58.854Z,984.41
2023-03-23T04:59:58.806Z,984.39
2023-03-23T05:00:58.808Z,984.33
2023-03-23T05:02:14.479Z,984.34
2023-03-23T05:02:58.784Z,984.30
2023-03-23T05:03:59.396Z,984.25
2023-03-23T05:04:59.439Z,984.26
2023-03-23T05:05:58.829Z,984.22
2023-03-23T05:06:58.721Z,984.22
2023-03-23T05:07:58.756Z,984.23
2023-03-23T05:08:58.697Z,984.23
2023-03-23T05:09:58.970Z,984.26
2023-03-23T05:10:58.738Z,984.20
2023-03-23T05:11:58.718Z,984.12
2023-03-23T05:12:58.662Z,984.10
2023-03-23T05:13:58.672Z,984.13
2023-03-23T05:14:58.671Z,984.16
2023-03-23T05:15:58.645Z,984.15
2023-03-23T05:16:58.616Z,984.15
2023-03-23T05:17:58.608Z,984.17
2023-03-23T05:18:58.640Z,984.28
2023-03-23T05:19:58.594Z,984.36
2023-03-23T05:20:58.571Z,984.35
2023-03-23T05:21:58.598Z,984.32
2023-03-23T05:22:58.548Z,984.24
2023-03-23T05:23:58.576Z,984.21
2023-03-23T05:24:58.660Z,984.21
2023-03-23T05:25:58.537Z,984.22
2023-03-23T05:26:58.541Z,984.20
2023-03-23T05:27:58.519Z,984.21
2023-03-23T05:28:58.549Z,984.26
2023-03-23T05:29:58.499Z,984.21
2023-03-23T05:30:58.490Z,984.15
2023-03-23T05:31:58.526Z,984.13
2023-03-23T05:32:58.474Z,984.17
2023-03-23T05:33:58.490Z,984.25
2023-03-23T05:34:58.432Z,984.26
2023-03-23T05:35:58.470Z,984.25
2023-03-23T05:36:58.432Z,984.21
2023-03-23T05:37:58.402Z,984.22
2023-03-23T05:38:58.381Z,984.24
2023-03-23T05:39:58.387Z,984.26
2023-03-23T05:40:58.355Z,984.23
2023-03-23T05:41:58.386Z,984.27
2023-03-23T05:42:58.537Z,984.25
2023-03-23T05:43:58.361Z,984.26
2023-03-23T05:44:58.352Z,984.25
2023-03-23T05:45:58.333Z,984.29
2023-03-23T05:46:58.307Z,984.29
2023-03-23T05:47:58.311Z,984.33
2023-03-23T05:48:58.296Z,984.34
2023-03-23T05:49:58.344Z,984.36
2023-03-23T05:50:58.331Z,984.38
2023-03-23T05:51:58.254Z,984.37
2023-03-23T05:52:58.256Z,984.44
2023-03-23T05:53:58.278Z,984.45
2023-03-23T05:54:58.221Z,984.46
2023-03-23T05:55:58.224Z,984.47
2023-03-23T05:56:58.237Z,984.53
2023-03-23T05:57:58.190Z,984.53
2023-03-23T05:58:58.194Z,984.56
2023-03-23T05:59:58.177Z,984.61
2023-03-23T06:00:58.166Z,984.56
2023-03-23T06:01:58.161Z,984.55
2023-03-23T06:02:58.149Z,984.44
2023-03-23T06:03:59.299Z,984.48
2023-03-23T06:04:58.117Z,984.47
2023-03-23T06:05:58.149Z,984.45
2023-03-23T06:06:58.108Z,984.42
2023-03-23T06:07:58.091Z,984.37
2023-03-23T06:08:58.093Z,984.36
2023-03-23T06:09:58.069Z,984.36
2023-03-23T06:10:58.060Z,984.33
2023-03-23T06:11:58.090Z,984.24
2023-03-23T06:12:58.039Z,984.23
2023-03-23T06:13:58.055Z,984.20
2023-03-23T06:14:58.074Z,984.12
2023-03-23T06:15:58.012Z,984.12
2023-03-23T06:16:58.027Z,984.14
2023-03-23T06:17:57.985Z,984.19
2023-03-23T06:18:58.053Z,984.22
2023-03-23T06:19:58.000Z,984.21
2023-03-23T06:20:58.018Z,984.20
2023-03-23T06:21:57.961Z,984.20
2023-03-23T06:22:57.954Z,984.23
2023-03-23T06:23:58.112Z,984.27
2023-03-23T06:24:57.946Z,984.33
2023-03-23T06:26:04.385Z,984.31
2023-03-23T06:26:57.896Z,984.34
2023-03-23T06:27:57.891Z,984.37
2023-03-23T06:28:57.894Z,984.39
2023-03-23T06:29:57.855Z,984.39
2023-03-23T06:30:57.868Z,984.40
2023-03-23T06:31:57.853Z,984.47
2023-03-23T06:32:57.831Z,984.53
2023-03-23T06:33:57.849Z,984.55
2023-03-23T06:34:57.856Z,984.59
2023-03-23T06:35:57.838Z,984.58
2023-03-23T06:36:57.801Z,984.66
2023-03-23T06:37:57.772Z,984.69
2023-03-23T06:38:57.790Z,984.62
2023-03-23T06:39:57.746Z,984.66
2023-03-23T06:40:57.748Z,984.60
2023-03-23T06:41:57.750Z,984.55
2023-03-23T06:42:57.728Z,984.50
2023-03-23T06:43:57.719Z,984.47
2023-03-23T06:44:57.728Z,984.41
2023-03-23T06:45:57.697Z,984.44
2023-03-23T06:46:57.686Z,984.40
2023-03-23T06:47:57.762Z,984.41
2023-03-23T06:48:57.693Z,984.44
2023-03-23T06:49:57.662Z,984.46
2023-03-23T06:50:57.689Z,984.47
2023-03-23T06:51:57.677Z,984.49
2023-03-23T06:52:57.619Z,984.47
2023-03-23T06:53:57.645Z,984.49
2023-03-23T06:54:57.635Z,984.48
2023-03-23T06:55:57.593Z,984.50
2023-03-23T06:56:57.580Z,984.49
2023-03-23T06:57:57.578Z,984.50
2023-03-23T06:58:57.667Z,984.51
2023-03-23T06:59:57.546Z,984.52
2023-03-23T07:00:57.581Z,984.48
2023-03-23T07:01:57.588Z,984.48
2023-03-23T07:02:57.516Z,984.46
2023-03-23T07:03:57.558Z,984.44
2023-03-23T07:04:57.505Z,984.45
2023-03-23T07:05:57.478Z,984.45
2023-03-23T07:06:57.511Z,984.44
2023-03-23T07:07:57.453Z,984.51
2023-03-23T07:08:57.475Z,984.52
2023-03-23T07:09:57.452Z,984.50
2023-03-23T07:10:57.446Z,984.49
2023-03-23T07:11:57.419Z,984.50
2023-03-23T07:12:57.452Z,984.57
2023-03-23T07:13:57.450Z,984.61
2023-03-23T07:14:57.399Z,984.62
2023-03-23T07:15:57.383Z,984.63
2023-03-23T07:16:57.461Z,984.67
2023-03-23T07:17:57.350Z,984.63
2023-03-23T07:18:57.374Z,984.63
2023-03-23T07:19:57.328Z,984.62
2023-03-23T07:20:57.358Z,984.61
2023-03-23T07:21:57.356Z,984.64
2023-03-23T07:22:57.313Z,984.63
2023-03-23T07:23:57.308Z,984.63
2023-03-23T07:24:57.328Z,984.61
2023-03-23T07:25:57.283Z,984.62
2023-03-23T07:26:57.300Z,984.63
2023-03-23T07:27:57.250Z,984.65
2023-03-23T07:28:58.017Z,984.68
2023-03-23T07:29:57.235Z,984.72
2023-03-23T07:30:57.226Z,984.75
2023-03-23T07:31:57.211Z,984.78
2023-03-23T07:32:57.201Z,984.76
2023-03-23T07:33:57.658Z,984.76
2023-03-23T07:34:57.197Z,984.77
2023-03-23T07:35:57.200Z,984.85
2023-03-23T07:36:57.175Z,984.87
2023-03-23T07:37:57.165Z,984.94
2023-03-23T07:38:57.429Z,984.93
2023-03-23T07:39:57.127Z,984.92
2023-03-23T07:40:57.132Z,984.88
2023-03-23T07:41:57.119Z,984.88
2023-03-23T07:42:57.107Z,984.86
2023-03-23T07:43:57.097Z,984.88
2023-03-23T07:44:57.146Z,984.87
2023-03-23T07:45:57.064Z,984.89
2023-03-23T07:46:57.062Z,984.86
2023-03-23T07:47:57.050Z,984.81
2023-03-23T07:48:57.038Z,984.78
2023-03-23T07:49:57.062Z,984.77
2023-03-23T07:50:57.021Z,984.77
2023-03-23T07:51:57.015Z,984.77
2023-03-23T07:52:57.011Z,984.75
2023-03-23T07:53:56.978Z,984.81
2023-03-23T07:54:57.039Z,984.78
2023-03-23T07:55:56.965Z,984.77
2023-03-23T07:56:57.079Z,984.82
2023-03-23T07:57:56.970Z,984.82
2023-03-23T07:58:57.013Z,984.81
2023-03-23T07:59:56.954Z,984.68
2023-03-23T08:00:56.960Z,984.85
2023-03-23T08:01:56.899Z,984.80
2023-03-23T08:02:56.908Z,984.76
2023-03-23T08:03:56.890Z,984.74
2023-03-23T08:04:56.896Z,984.74
2023-03-23T08:05:56.855Z,984.74
2023-03-23T08:06:56.868Z,984.76
2023-03-23T08:07:56.838Z,984.82
2023-03-23T08:08:56.885Z,984.79
2023-03-23T08:09:56.860Z,984.77
2023-03-23T08:10:56.848Z,984.82
2023-03-23T08:11:56.836Z,984.83
2023-03-23T08:12:56.786Z,984.85
2023-03-23T08:13:56.831Z,984.93
2023-03-23T08:14:56.784Z,984.98
2023-03-23T08:15:56.750Z,984.98
2023-03-23T08:16:56.759Z,985.01
2023-03-23T08:17:56.729Z,985.06
2023-03-23T08:18:56.739Z,985.05
2023-03-23T08:19:56.718Z,985.05
2023-03-23T08:20:56.720Z,985.05
2023-03-23T08:21:56.708Z,985.03
2023-03-23T08:22:56.679Z,985.04
2023-03-23T08:23:56.660Z,985.06
2023-03-23T08:24:56.712Z,985.03
2023-03-23T08:25:56.636Z,984.99
2023-03-23T08:26:56.659Z,985.03
2023-03-23T08:27:56.617Z,985.04
2023-03-23T08:28:56.633Z,985.06
2023-03-23T08:29:56.614Z,985.01
2023-03-23T08:30:56.594Z,985.02
2023-03-23T08:31:56.592Z,984.99
2023-03-23T08:32:56.575Z,985.01
2023-03-23T08:33:56.559Z,985.00
2023-03-23T08:34:56.572Z,985.02
2023-03-23T08:35:56.551Z,985.02
2023-03-23T08:36:56.527Z,984.99
2023-03-23T08:37:56.520Z,984.99
2023-03-23T08:38:56.513Z,985.01
2023-03-23T08:39:56.564Z,984.97
2023-03-23T08:40:56.495Z,984.95
2023-03-23T08:41:56.476Z,984.93
2023-03-23T08:43:01.054Z,984.94
2023-03-23T08:43:56.456Z,984.96
2023-03-23T08:44:56.478Z,985.01
2023-03-23T08:45:56.426Z,984.99
2023-03-23T08:46:56.504Z,985.05
2023-03-23T08:47:56.467Z,985.07
2023-03-23T08:48:56.408Z,985.06
2023-03-23T08:49:56.383Z,985.08
2023-03-23T08:50:56.467Z,985.12
2023-03-23T08:51:56.409Z,985.12
2023-03-23T08:52:56.385Z,985.12
2023-03-23T08:53:56.354Z,985.09
2023-03-23T08:54:56.370Z,985.11
2023-03-23T08:55:56.347Z,985.09
2023-03-23T08:56:56.363Z,985.10
2023-03-23T08:57:56.340Z,985.06
2023-03-23T08:58:56.295Z,985.05
2023-03-23T08:59:56.390Z,985.08
2023-03-23T09:00:56.282Z,985.04
2023-03-23T09:01:56.274Z,985.06
2023-03-23T09:02:56.272Z,985.02
2023-03-23T09:03:56.333Z,985.04
2023-03-23T09:04:56.245Z,985.00
2023-03-23T09:05:56.289Z,984.98
2023-03-23T09:06:56.244Z,984.99
2023-03-23T09:07:56.200Z,984.94
2023-03-23T09:08:56.230Z,984.96
2023-03-23T09:09:56.177Z,984.96
2023-03-23T09:10:56.168Z,984.97
2023-03-23T09:12:56.151Z,984.95
2023-03-23T09:13:56.133Z,984.93
2023-03-23T09:14:56.148Z,984.93
2023-03-23T09:15:56.324Z,984.93
2023-03-23T09:16:56.124Z,984.97
2023-03-23T09:17:56.102Z,984.93
2023-03-23T09:18:56.095Z,984.88
2023-03-23T09:19:56.090Z,984.88
2023-03-23T09:20:56.104Z,984.83
2023-03-23T09:21:56.067Z,984.86
2023-03-23T09:22:56.048Z,984.88
2023-03-23T09:23:56.125Z,984.86
2023-03-23T09:24:56.071Z,984.79
2023-03-23T09:25:56.060Z,984.88
2023-03-23T09:26:56.061Z,984.93
2023-03-23T09:27:56.005Z,984.91
2023-03-23T09:28:55.993Z,984.88
2023-03-23T09:29:55.986Z,984.91
2023-03-23T09:30:55.966Z,984.94
2023-03-23T09:31:55.961Z,984.96
2023-03-23T09:32:56.052Z,984.97
2023-03-23T09:33:56.069Z,984.99
2023-03-23T09:34:56.035Z,984.98
2023-03-23T09:35:55.944Z,985.07
2023-03-23T09:36:57.267Z,985.03
2023-03-23T09:37:56.006Z,985.03
2023-03-23T09:38:55.918Z,985.01
2023-03-23T09:39:55.969Z,984.98
2023-03-23T09:40:55.899Z,984.99
2023-03-23T09:41:55.843Z,985.03
2023-03-23T09:42:55.861Z,985.00
2023-03-23T09:43:55.852Z,984.99
2023-03-23T09:44:55.845Z,984.95
2023-03-23T09:45:55.833Z,985.01
2023-03-23T09:46:55.815Z,985.01
2023-03-23T09:47:55.795Z,985.00
2023-03-23T09:48:55.824Z,985.01
2023-03-23T09:49:55.793Z,985.02
2023-03-23T09:50:55.769Z,985.04
2023-03-23T09:51:55.759Z,985.03
2023-03-23T09:52:55.750Z,985.03
2023-03-23T09:53:55.731Z,985.00
2023-03-23T09:54:55.740Z,985.01
2023-03-23T09:55:55.741Z,985.01
2023-03-23T09:56:55.736Z,985.01
2023-03-23T09:57:55.859Z,984.98
2023-03-23T09:58:55.699Z,984.98
2023-03-23T09:59:55.783Z,984.98
2023-03-23T10:00:55.719Z,984.96
2023-03-23T10:01:55.672Z,984.99
2023-03-23T10:02:55.728Z,985.01
2023-03-23T10:03:55.620Z,985.04
2023-03-23T10:04:55.802Z,984.96
2023-03-23T10:05:55.632Z,984.97
2023-03-23T10:06:55.598Z,984.98
2023-03-23T10:07:55.599Z,985.00
2023-03-23T10:08:57.563Z,985.02
2023-03-23T10:09:55.587Z,985.09
2023-03-23T10:10:55.664Z,985.06
2023-03-23T10:11:55.583Z,985.11
2023-03-23T10:12:55.531Z,985.03
2023-03-23T10:13:55.641Z,985.07
2023-03-23T10:14:55.530Z,985.10
2023-03-23T10:15:55.506Z,985.08
2023-03-23T10:16:55.503Z,985.09
2023-03-23T10:17:55.536Z,985.10
2023-03-23T10:18:55.479Z,985.15
2023-03-23T10:19:55.482Z,985.13
2023-03-23T10:20:55.447Z,985.16
2023-03-23T10:21:55.450Z,985.12
2023-03-23T10:22:55.423Z,985.08
2023-03-23T10:23:55.456Z,985.08
2023-03-23T10:24:55.433Z,985.16
2023-03-23T10:25:55.423Z,985.15
2023-03-23T10:26:55.402Z,985.17
2023-03-23T10:27:55.494Z,985.15
2023-03-23T10:28:55.391Z,985.14
2023-03-23T10:29:55.380Z,985.22
2023-03-23T10:30:55.343Z,985.23
2023-03-23T10:31:55.370Z,985.24
2023-03-23T10:32:55.329Z,985.27
2023-03-23T10:33:55.335Z,985.32
2023-03-23T10:34:55.526Z,985.33
2023-03-23T10:35:55.383Z,985.33
2023-03-23T10:36:55.305Z,985.39
2023-03-23T10:37:55.279Z,985.41
2023-03-23T10:38:55.313Z,985.34
2023-03-23T10:39:55.255Z,985.32
2023-03-23T10:40:55.313Z,985.41
2023-03-23T10:41:55.278Z,985.37
2023-03-23T10:42:55.227Z,985.32
2023-03-23T10:43:55.318Z,985.34
2023-03-23T10:44:55.330Z,985.32
2023-03-23T10:46:00.761Z,985.37
2023-03-23T10:46:55.186Z,985.32
2023-03-23T10:47:55.192Z,985.35
2023-03-23T10:48:55.192Z,985.40
2023-03-23T10:49:55.171Z,985.35
2023-03-23T10:50:55.212Z,985.36
2023-03-23T10:51:55.144Z,985.32
2023-03-23T10:52:55.133Z,985.36
2023-03-23T10:53:55.153Z,985.38
2023-03-23T10:54:55.108Z,985.36
2023-03-23T10:55:55.760Z,985.34
2023-03-23T10:56:59.703Z,985.31
2023-03-23T10:57:55.112Z,985.37
2023-03-23T10:58:55.089Z,985.34
2023-03-23T10:59:55.055Z,985.35
2023-03-23T11:00:55.048Z,985.30
2023-03-23T11:01:55.042Z,985.25
2023-03-23T11:02:55.021Z,985.30
2023-03-23T11:03:55.036Z,985.27
2023-03-23T11:04:55.014Z,985.25
2023-03-23T11:05:55.014Z,985.21
2023-03-23T11:06:55.020Z,985.20
2023-03-23T11:07:55.002Z,985.24
2023-03-23T11:08:54.972Z,985.20
2023-03-23T11:09:54.954Z,985.17
2023-03-23T11:10:55.007Z,985.24
2023-03-23T11:12:01.956Z,985.26
2023-03-23T11:12:54.922Z,985.23
2023-03-23T11:13:54.971Z,985.28
2023-03-23T11:14:54.999Z,985.25
2023-03-23T11:15:55.118Z,985.26
2023-03-23T11:16:56.331Z,985.29
2023-03-23T11:17:54.887Z,985.32
2023-03-23T11:18:54.856Z,985.37
2023-03-23T11:19:54.847Z,985.38
2023-03-23T11:20:54.857Z,985.36
2023-03-23T11:21:54.830Z,985.38
2023-03-23T11:22:54.819Z,985.36
2023-03-23T11:24:07.197Z,985.40
2023-03-23T11:24:54.824Z,985.38
2023-03-23T11:25:54.833Z,985.34
2023-03-23T11:26:58.846Z,985.38
2023-03-23T11:27:54.777Z,985.39
2023-03-23T11:28:54.765Z,985.33
2023-03-23T11:29:58.412Z,985.34
2023-03-23T11:30:54.755Z,985.33
2023-03-23T11:31:54.744Z,985.37
2023-03-23T11:32:54.708Z,985.38
2023-03-23T11:34:05.783Z,985.36
2023-03-23T11:34:55.545Z,985.37
2023-03-23T11:35:54.730Z,985.36
2023-03-23T11:36:54.706Z,985.40
2023-03-23T11:37:54.662Z,985.39
2023-03-23T11:38:54.659Z,985.45
2023-03-23T11:39:54.640Z,985.47
2023-03-23T11:40:54.637Z,985.46
2023-03-23T11:42:06.883Z,985.48
2023-03-23T11:42:54.604Z,985.48
2023-03-23T11:43:54.625Z,985.50
2023-03-23T11:44:54.616Z,985.52
2023-03-23T11:45:54.658Z,985.52
2023-03-23T11:46:54.567Z,985.55
2023-03-23T11:47:54.560Z,985.51
2023-03-23T11:48:54.548Z,985.55
2023-03-23T11:49:54.535Z,985.52
2023-03-23T11:50:54.556Z,985.52
2023-03-23T11:51:54.552Z,985.54
2023-03-23T11:52:54.562Z,985.57
2023-03-23T11:53:54.497Z,985.64
2023-03-23T11:54:54.472Z,985.57
2023-03-23T11:55:54.895Z,985.59
2023-03-23T11:56:54.450Z,985.61
2023-03-23T11:57:54.444Z,985.62
2023-03-23T11:58:54.436Z,985.61
2023-03-23T11:59:54.439Z,985.59
2023-03-23T12:00:54.468Z,985.59
2023-03-23T12:01:54.408Z,985.63
2023-03-23T12:02:54.393Z,985.54
2023-03-23T12:03:54.405Z,985.57
2023-03-23T12:04:54.402Z,985.61
2023-03-23T12:05:54.383Z,985.62
2023-03-23T12:06:54.369Z,985.62
2023-03-23T12:07:54.373Z,985.62
2023-03-23T12:08:54.327Z,985.65
2023-03-23T12:09:54.339Z,985.68
2023-03-23T12:10:57.174Z,985.64
2023-03-23T12:11:54.301Z,985.59
2023-03-23T12:12:54.281Z,985.60
2023-03-23T12:13:58.687Z,985.58
2023-03-23T12:14:54.261Z,985.50
2023-03-23T12:15:54.301Z,985.49
2023-03-23T12:16:54.236Z,985.47
2023-03-23T12:17:54.232Z,985.45
2023-03-23T12:18:54.455Z,985.48
2023-03-23T12:19:54.224Z,985.46
2023-03-23T12:20:54.217Z,985.45
2023-03-23T12:21:54.215Z,985.48
2023-03-23T12:22:54.180Z,985.46
2023-03-23T12:23:54.204Z,985.46
2023-03-23T12:24:54.207Z,985.47
2023-03-23T12:25:54.178Z,985.49
2023-03-23T12:26:54.133Z,985.43
2023-03-23T12:27:54.171Z,985.46
2023-03-23T12:28:54.115Z,985.46